createdAt,value
2023-04-02T00:00:21.000Z,0
2023-04-02T00:01:38.378Z,0
2023-04-02T00:02:54.000Z,0
2023-04-02T00:04:09.000Z,0
2023-04-02T00:05:25.000Z,0
2023-04-02T00:06:41.000Z,0
2023-04-02T00:07:57.000Z,0
2023-04-02T00:09:13.000Z,0
2023-04-02T00:10:30.000Z,0
2023-04-02T00:11:46.000Z,0
2023-04-02T00:13:02.000Z,0
2023-04-02T00:14:19.000Z,0
2023-04-02T00:15:35.000Z,0
2023-04-02T00:16:51.000Z,0
2023-04-02T00:18:07.000Z,0
2023-04-02T00:19:24.000Z,0
2023-04-02T00:20:40.000Z,0
2023-04-02T00:21:55.000Z,0
2023-04-02T00:23:12.000Z,0
2023-04-02T00:24:28.000Z,0
2023-04-02T00:25:44.000Z,0
2023-04-02T00:27:01.201Z,0
2023-04-02T00:28:17.000Z,0
2023-04-02T00:29:33.000Z,0
2023-04-02T00:30:48.000Z,0
2023-04-02T00:32:04.000Z,0
2023-04-02T00:33:20.000Z,0
2023-04-02T00:34:35.000Z,0
2023-04-02T00:35:51.000Z,0
2023-04-02T00:37:07.000Z,0
2023-04-02T00:38:23.000Z,0
2023-04-02T00:39:40.155Z,0
2023-04-02T00:40:56.000Z,0
2023-04-02T00:42:12.000Z,0
2023-04-02T00:43:28.000Z,0
2023-04-02T00:44:45.000Z,0
2023-04-02T00:46:01.584Z,0
2023-04-02T00:47:17.000Z,0
2023-04-02T00:48:34.160Z,0
2023-04-02T00:49:50.000Z,0
2023-04-02T00:51:06.743Z,0
2023-04-02T00:52:21.000Z,0
2023-04-02T00:53:38.000Z,0
2023-04-02T00:54:54.000Z,0
2023-04-02T00:56:10.000Z,0
2023-04-02T00:57:26.000Z,0
2023-04-02T00:58:43.000Z,0
2023-04-02T00:59:59.000Z,0
2023-04-02T01:01:15.000Z,0
2023-04-02T01:02:32.000Z,0
2023-04-02T01:03:48.000Z,0
2023-04-02T01:05:04.000Z,0
2023-04-02T01:06:20.000Z,0
2023-04-02T01:07:37.000Z,0
2023-04-02T01:08:52.000Z,0
2023-04-02T01:10:08.000Z,0
2023-04-02T01:11:25.000Z,0
2023-04-02T01:12:41.000Z,0
2023-04-02T01:13:57.000Z,0
2023-04-02T01:15:13.000Z,0
2023-04-02T01:16:30.526Z,0
2023-04-02T01:17:46.819Z,0
2023-04-02T01:19:02.000Z,0
2023-04-02T01:20:19.000Z,0
2023-04-02T01:21:35.000Z,0
2023-04-02T01:22:51.000Z,0
2023-04-02T01:24:07.000Z,0
2023-04-02T01:25:23.000Z,0
2023-04-02T01:26:39.000Z,0
2023-04-02T01:27:55.000Z,0
2023-04-02T01:29:12.000Z,0
2023-04-02T01:30:28.000Z,0
2023-04-02T01:31:44.000Z,0
2023-04-02T01:33:01.000Z,0
2023-04-02T01:34:17.000Z,0
2023-04-02T01:35:33.000Z,0
2023-04-02T01:36:49.000Z,0
2023-04-02T01:38:06.000Z,0
2023-04-02T01:39:22.000Z,0
2023-04-02T01:40:38.000Z,0
2023-04-02T01:41:54.000Z,0
2023-04-02T01:43:10.000Z,0
2023-04-02T01:44:26.000Z,0
2023-04-02T01:45:42.000Z,0
2023-04-02T01:46:59.429Z,0
2023-04-02T01:48:15.000Z,0
2023-04-02T01:49:32.045Z,0
2023-04-02T01:50:48.000Z,0
2023-04-02T01:52:04.000Z,0
2023-04-02T01:53:20.000Z,0
2023-04-02T01:54:36.000Z,0
2023-04-02T01:55:53.450Z,0
2023-04-02T01:57:09.000Z,0
2023-04-02T01:58:24.000Z,0
2023-04-02T01:59:41.334Z,0
2023-04-02T02:00:57.000Z,0
2023-04-02T02:02:13.000Z,0
2023-04-02T02:03:29.000Z,0
2023-04-02T02:04:46.000Z,0
2023-04-02T02:06:02.000Z,0
2023-04-02T02:07:18.000Z,0
2023-04-02T02:08:35.346Z,0
2023-04-02T02:09:50.000Z,0
2023-04-02T02:11:06.000Z,0
2023-04-02T02:12:22.000Z,0
2023-04-02T02:13:38.000Z,0
2023-04-02T02:14:53.000Z,0
2023-04-02T02:16:08.000Z,0
2023-04-02T02:17:24.000Z,0
2023-04-02T02:18:40.000Z,0
2023-04-02T02:19:56.000Z,0
2023-04-02T02:21:13.341Z,0
2023-04-02T02:22:29.000Z,0
2023-04-02T02:23:45.000Z,0
2023-04-02T02:25:01.000Z,0
2023-04-02T02:26:18.000Z,0
2023-04-02T02:27:34.000Z,0
2023-04-02T02:28:50.000Z,0
2023-04-02T02:30:07.000Z,0
2023-04-02T02:31:23.000Z,0
2023-04-02T02:32:39.950Z,0
2023-04-02T02:33:54.000Z,0
2023-04-02T02:35:11.000Z,0
2023-04-02T02:36:27.000Z,0
2023-04-02T02:37:43.000Z,0
2023-04-02T02:39:00.000Z,0
2023-04-02T02:40:16.000Z,0
2023-04-02T02:41:32.000Z,0
2023-04-02T02:42:49.000Z,0
2023-04-02T02:44:05.000Z,0
2023-04-02T02:45:21.000Z,0
2023-04-02T02:46:38.110Z,0
2023-04-02T02:47:54.000Z,0
2023-04-02T02:49:10.000Z,0
2023-04-02T02:50:25.000Z,0
2023-04-02T02:51:42.000Z,0
2023-04-02T02:52:58.000Z,0
2023-04-02T02:54:14.000Z,0
2023-04-02T02:55:30.000Z,0
2023-04-02T02:56:47.000Z,0
2023-04-02T02:58:03.000Z,0
2023-04-02T02:59:19.000Z,0
2023-04-02T03:00:36.000Z,0
2023-04-02T03:01:52.000Z,0
2023-04-02T03:03:08.000Z,0
2023-04-02T03:04:24.000Z,0
2023-04-02T03:05:41.000Z,0
2023-04-02T03:06:56.747Z,0
2023-04-02T03:08:12.000Z,0
2023-04-02T03:09:29.000Z,0
2023-04-02T03:10:45.000Z,0
2023-04-02T03:12:01.904Z,0
2023-04-02T03:13:17.000Z,0
2023-04-02T03:14:34.000Z,0
2023-04-02T03:15:50.000Z,0
2023-04-02T03:17:06.000Z,0
2023-04-02T03:18:23.000Z,0
2023-04-02T03:19:39.000Z,0
2023-04-02T03:20:55.000Z,0
2023-04-02T03:22:11.000Z,0
2023-04-02T03:23:27.000Z,0
2023-04-02T03:24:43.794Z,0
2023-04-02T03:25:59.000Z,0
2023-04-02T03:27:16.370Z,0
2023-04-02T03:28:32.000Z,0
2023-04-02T03:29:48.945Z,0
2023-04-02T03:31:04.000Z,0
2023-04-02T03:32:21.501Z,0
2023-04-02T03:33:37.000Z,0
2023-04-02T03:34:53.000Z,0
2023-04-02T03:36:10.000Z,0
2023-04-02T03:38:42.000Z,0
2023-04-02T03:39:58.000Z,0
2023-04-02T03:41:14.000Z,0
2023-04-02T03:42:30.000Z,0
2023-04-02T03:43:46.000Z,0
2023-04-02T03:45:03.000Z,0
2023-04-02T03:46:19.000Z,0
2023-04-02T03:47:35.000Z,0
2023-04-02T03:48:52.291Z,0
2023-04-02T03:50:08.000Z,0
2023-04-02T03:51:24.000Z,0
2023-04-02T03:52:40.000Z,0
2023-04-02T03:53:57.000Z,0
2023-04-02T03:55:13.000Z,0
2023-04-02T03:56:28.000Z,0
2023-04-02T03:57:45.000Z,0
2023-04-02T03:59:01.000Z,0
2023-04-02T04:00:17.000Z,0
2023-04-02T04:01:33.000Z,0
2023-04-02T04:02:50.000Z,0
2023-04-02T04:04:06.000Z,0
2023-04-02T04:05:22.000Z,0
2023-04-02T04:06:39.000Z,0
2023-04-02T04:07:55.000Z,0
2023-04-02T04:09:11.000Z,0
2023-04-02T04:10:27.000Z,0
2023-04-02T04:11:44.000Z,0
2023-04-02T04:12:59.000Z,0
2023-04-02T04:14:15.000Z,0
2023-04-02T04:15:32.339Z,0
2023-04-02T04:16:48.000Z,0
2023-04-02T04:18:04.000Z,0
2023-04-02T04:19:20.000Z,0
2023-04-02T04:20:37.000Z,0
2023-04-02T04:21:53.000Z,0
2023-04-02T04:23:09.000Z,0
2023-04-02T04:24:26.000Z,0
2023-04-02T04:25:42.000Z,0
2023-04-02T04:26:58.000Z,0
2023-04-02T04:28:14.000Z,0
2023-04-02T04:29:30.000Z,0
2023-04-02T04:30:45.851Z,0
2023-04-02T04:32:00.000Z,0
2023-04-02T04:33:16.415Z,1
2023-04-02T04:34:31.000Z,0
2023-04-02T04:35:47.000Z,0
2023-04-02T04:37:04.225Z,1
2023-04-02T04:38:20.000Z,1
2023-04-02T04:39:36.000Z,0
2023-04-02T04:40:52.000Z,0
2023-04-02T04:42:09.000Z,0
2023-04-02T04:43:25.000Z,1
2023-04-02T04:44:41.000Z,0
2023-04-02T04:45:57.000Z,3
2023-04-02T04:47:14.000Z,1
2023-04-02T04:48:30.000Z,2
2023-04-02T04:49:46.000Z,1
2023-04-02T04:51:02.049Z,1
2023-04-02T04:52:18.000Z,3
2023-04-02T04:53:34.547Z,2
2023-04-02T04:54:50.000Z,3
2023-04-02T04:56:06.000Z,5
2023-04-02T04:57:22.000Z,3
2023-04-02T04:58:39.000Z,7
2023-04-02T04:59:55.000Z,7
2023-04-02T05:01:11.000Z,13
2023-04-02T05:02:27.000Z,13
2023-04-02T05:03:44.000Z,9
2023-04-02T05:05:00.000Z,14
2023-04-02T05:06:16.880Z,18
2023-04-02T05:07:31.000Z,24
2023-04-02T05:08:48.000Z,24
2023-04-02T05:10:04.000Z,19
2023-04-02T05:11:20.000Z,29
2023-04-02T05:12:36.000Z,31
2023-04-02T05:13:53.000Z,29
2023-04-02T05:15:09.547Z,32
2023-04-02T05:16:25.000Z,29
2023-04-02T05:17:41.000Z,43
2023-04-02T05:18:58.234Z,50
2023-04-02T05:20:14.000Z,53
2023-04-02T05:21:30.000Z,55
2023-04-02T05:22:46.922Z,44
2023-04-02T05:24:01.000Z,52
2023-04-02T05:25:18.000Z,63
2023-04-02T05:26:34.000Z,59
2023-04-02T05:27:50.000Z,57
2023-04-02T05:29:06.000Z,59
2023-04-02T05:30:23.347Z,73
2023-04-02T05:31:39.603Z,82
2023-04-02T05:32:55.000Z,96
2023-04-02T05:34:11.000Z,104
2023-04-02T05:35:28.000Z,132
2023-04-02T05:36:44.000Z,113
2023-04-02T05:38:00.747Z,127
2023-04-02T05:39:16.000Z,138
2023-04-02T05:40:32.248Z,138
2023-04-02T05:41:48.000Z,144
2023-04-02T05:43:04.000Z,153
2023-04-02T05:44:20.000Z,142
2023-04-02T05:45:36.000Z,139
2023-04-02T05:46:53.000Z,150
2023-04-02T05:48:09.000Z,149
2023-04-02T05:49:25.000Z,143
2023-04-02T05:50:41.000Z,148
2023-04-02T05:51:58.000Z,159
2023-04-02T05:53:14.000Z,181
2023-04-02T05:54:30.000Z,185
2023-04-02T05:55:46.000Z,186
2023-04-02T05:57:02.284Z,192
2023-04-02T05:58:18.000Z,205
2023-04-02T05:59:34.000Z,207
2023-04-02T06:00:50.000Z,183
2023-04-02T06:02:06.000Z,184
2023-04-02T06:03:23.457Z,220
2023-04-02T06:04:39.000Z,216
2023-04-02T06:05:55.915Z,204
2023-04-02T06:07:11.000Z,191
2023-04-02T06:08:28.000Z,214
2023-04-02T06:09:44.000Z,205
2023-04-02T06:11:00.000Z,226
2023-04-02T06:12:16.000Z,230
2023-04-02T06:13:32.000Z,234
2023-04-02T06:14:48.000Z,230
2023-04-02T06:16:04.000Z,234
2023-04-02T06:17:20.000Z,239
2023-04-02T06:18:37.000Z,253
2023-04-02T06:19:53.000Z,260
2023-04-02T06:21:09.000Z,267
2023-04-02T06:22:25.978Z,275
2023-04-02T06:23:41.000Z,278
2023-04-02T06:24:57.000Z,316
2023-04-02T06:26:13.000Z,321
2023-04-02T06:27:29.000Z,348
2023-04-02T06:28:45.000Z,356
2023-04-02T06:30:02.000Z,350
2023-04-02T06:31:18.000Z,359
2023-04-02T06:32:34.000Z,374
2023-04-02T06:33:50.000Z,403
2023-04-02T06:35:06.000Z,461
2023-04-02T06:36:21.000Z,426
2023-04-02T06:37:37.000Z,441
2023-04-02T06:38:53.000Z,463
2023-04-02T06:40:10.000Z,516
2023-04-02T06:41:25.000Z,518
2023-04-02T06:42:40.000Z,509
2023-04-02T06:43:56.000Z,493
2023-04-02T06:45:13.294Z,532
2023-04-02T06:46:29.000Z,564
2023-04-02T06:47:45.000Z,543
2023-04-02T06:49:01.000Z,539
2023-04-02T06:50:17.000Z,535
2023-04-02T06:51:34.000Z,499
2023-04-02T06:52:50.000Z,553
2023-04-02T06:54:06.000Z,621
2023-04-02T06:55:22.000Z,588
2023-04-02T06:56:39.000Z,621
2023-04-02T06:57:55.000Z,647
2023-04-02T06:59:10.000Z,613
2023-04-02T07:00:27.127Z,624
2023-04-02T07:01:43.000Z,584
2023-04-02T07:02:59.000Z,598
2023-04-02T07:04:15.000Z,641
2023-04-02T07:05:31.000Z,660
2023-04-02T07:06:48.000Z,695
2023-04-02T07:08:03.000Z,694
2023-04-02T07:09:18.000Z,726
2023-04-02T07:10:34.000Z,756
2023-04-02T07:11:51.262Z,815
2023-04-02T07:13:07.483Z,856
2023-04-02T07:14:23.000Z,787
2023-04-02T07:15:39.000Z,852
2023-04-02T07:16:55.000Z,867
2023-04-02T07:18:11.000Z,951
2023-04-02T07:19:26.000Z,1105
2023-04-02T07:20:42.000Z,1088
2023-04-02T07:21:59.181Z,1230
2023-04-02T07:23:15.000Z,1237
2023-04-02T07:24:31.000Z,1351
2023-04-02T07:25:47.000Z,1653
2023-04-02T07:27:03.000Z,1620
2023-04-02T07:28:20.000Z,1366
2023-04-02T07:29:36.000Z,1497
2023-04-02T07:30:52.000Z,1640
2023-04-02T07:32:08.000Z,1578
2023-04-02T07:33:25.000Z,1452
2023-04-02T07:34:41.000Z,1457
2023-04-02T07:35:56.000Z,1536
2023-04-02T07:37:12.000Z,1707
2023-04-02T07:38:29.237Z,1519
2023-04-02T07:39:45.000Z,1449
2023-04-02T07:41:01.000Z,1581
2023-04-02T07:42:17.000Z,1794
2023-04-02T07:43:33.000Z,1620
2023-04-02T07:44:49.000Z,1744
2023-04-02T07:46:04.000Z,1659
2023-04-02T07:47:19.000Z,1511
2023-04-02T07:48:34.000Z,1262
2023-04-02T07:49:51.000Z,1348
2023-04-02T07:51:07.639Z,1605
2023-04-02T07:52:23.000Z,1844
2023-04-02T07:53:39.000Z,1822
2023-04-02T07:54:56.000Z,1619
2023-04-02T07:56:12.000Z,1796
2023-04-02T07:57:28.000Z,2415
2023-04-02T07:58:44.000Z,2061
2023-04-02T08:00:01.000Z,2073
2023-04-02T08:01:17.000Z,2182
2023-04-02T08:02:33.000Z,1973
2023-04-02T08:03:49.000Z,1887
2023-04-02T08:05:04.000Z,2046
2023-04-02T08:06:21.000Z,2085
2023-04-02T08:07:37.705Z,2264
2023-04-02T08:08:53.000Z,1972
2023-04-02T08:10:09.000Z,2474
2023-04-02T08:11:26.000Z,2316
2023-04-02T08:12:42.000Z,2221
2023-04-02T08:13:58.000Z,2223
2023-04-02T08:15:14.000Z,1987
2023-04-02T08:16:31.351Z,1805
2023-04-02T08:17:47.000Z,1966
2023-04-02T08:19:02.000Z,2159
2023-04-02T08:20:17.000Z,2208
2023-04-02T08:21:34.000Z,1829
2023-04-02T08:22:50.000Z,1690
2023-04-02T08:24:06.000Z,1739
2023-04-02T08:25:22.000Z,1778
2023-04-02T08:26:38.000Z,1843
2023-04-02T08:27:53.000Z,1608
2023-04-02T08:29:09.763Z,1586
2023-04-02T08:30:25.000Z,1607
2023-04-02T08:31:41.000Z,1525
2023-04-02T08:32:58.000Z,1477
2023-04-02T08:34:14.000Z,1575
2023-04-02T08:35:30.000Z,1664
2023-04-02T08:36:46.000Z,1692
2023-04-02T08:38:03.000Z,1713
2023-04-02T08:39:19.000Z,1731
2023-04-02T08:40:35.000Z,1798
2023-04-02T08:41:51.000Z,1864
2023-04-02T08:43:08.000Z,1910
2023-04-02T08:44:23.000Z,1988
2023-04-02T08:45:39.822Z,2073
2023-04-02T08:46:55.000Z,2202
2023-04-02T08:48:12.000Z,2572
2023-04-02T08:49:28.000Z,2370
2023-04-02T08:50:44.000Z,2227
2023-04-02T08:52:00.000Z,2087
2023-04-02T08:53:16.000Z,2176
2023-04-02T08:54:33.471Z,2196
2023-04-02T08:55:49.000Z,2140
2023-04-02T08:57:05.000Z,2200
2023-04-02T08:58:21.000Z,2177
2023-04-02T08:59:38.000Z,2302
2023-04-02T09:02:09.000Z,2429
2023-04-02T09:03:25.000Z,2493
2023-04-02T09:04:42.000Z,2477
2023-04-02T09:05:58.000Z,2700
2023-04-02T09:07:14.000Z,2747
2023-04-02T09:08:30.000Z,2636
2023-04-02T09:09:47.000Z,2763
2023-04-02T09:11:03.000Z,2766
2023-04-02T09:12:19.755Z,2775
2023-04-02T09:13:35.000Z,2709
2023-04-02T09:14:51.000Z,3051
2023-04-02T09:16:08.000Z,3366
2023-04-02T09:17:23.000Z,3263
2023-04-02T09:18:39.000Z,3171
2023-04-02T09:19:56.144Z,2948
2023-04-02T09:21:12.000Z,2930
2023-04-02T09:22:27.000Z,3022
2023-04-02T09:23:42.000Z,3112
2023-04-02T09:24:58.000Z,2979
2023-04-02T09:26:14.000Z,2926
2023-04-02T09:27:29.000Z,3219
2023-04-02T09:28:45.000Z,3680
2023-04-02T09:30:01.000Z,3510
2023-04-02T09:31:18.000Z,3811
2023-04-02T09:32:34.585Z,4404
2023-04-02T09:33:50.000Z,4394
2023-04-02T09:35:06.000Z,4209
2023-04-02T09:36:23.000Z,3962
2023-04-02T09:37:39.000Z,3890
2023-04-02T09:38:55.000Z,3899
2023-04-02T09:40:11.000Z,3812
2023-04-02T09:41:27.000Z,3784
2023-04-02T09:42:44.000Z,3995
2023-04-02T09:43:59.000Z,4122
2023-04-02T09:45:15.000Z,3990
2023-04-02T09:46:31.000Z,4167
2023-04-02T09:47:48.000Z,3929
2023-04-02T09:49:04.643Z,3780
2023-04-02T09:50:20.000Z,3968
2023-04-02T09:51:36.000Z,3914
2023-04-02T09:52:53.000Z,3809
2023-04-02T09:54:09.000Z,3658
2023-04-02T09:55:25.000Z,3427
2023-04-02T09:56:41.000Z,3434
2023-04-02T09:59:14.000Z,3275
2023-04-02T10:00:29.000Z,2951
2023-04-02T10:01:45.000Z,3493
2023-04-02T10:03:01.000Z,6715
2023-04-02T10:04:18.000Z,8734
2023-04-02T10:05:33.000Z,8057
2023-04-02T10:06:48.000Z,7077
2023-04-02T10:08:03.000Z,5659
2023-04-02T10:09:19.000Z,6261
2023-04-02T10:10:35.000Z,6858
2023-04-02T10:11:51.000Z,6326
2023-04-02T10:13:07.000Z,5817
2023-04-02T10:14:24.000Z,5176
2023-04-02T10:15:40.000Z,4694
2023-04-02T10:16:56.000Z,5569
2023-04-02T10:18:12.000Z,7050
2023-04-02T10:19:29.352Z,6758
2023-04-02T10:20:45.000Z,6691
2023-04-02T10:22:01.000Z,7096
2023-04-02T10:23:17.000Z,6403
2023-04-02T10:24:34.000Z,6288
2023-04-02T10:25:49.000Z,5669
2023-04-02T10:27:05.000Z,5797
2023-04-02T10:28:21.000Z,6044
2023-04-02T10:29:38.229Z,5756
2023-04-02T10:30:54.000Z,7078
2023-04-02T10:32:10.000Z,6520
2023-04-02T10:33:26.000Z,5392
2023-04-02T10:34:42.000Z,3824
2023-04-02T10:35:59.407Z,10613
2023-04-02T10:37:15.000Z,6788
2023-04-02T10:38:31.000Z,6727
2023-04-02T10:39:46.000Z,6612
2023-04-02T10:41:03.000Z,6813
2023-04-02T10:42:19.000Z,7117
2023-04-02T10:43:35.000Z,6839
2023-04-02T10:44:51.000Z,6343
2023-04-02T10:46:08.000Z,5929
2023-04-02T10:47:24.000Z,5459
2023-04-02T10:48:40.760Z,5534
2023-04-02T10:49:56.000Z,7421
2023-04-02T10:51:12.000Z,6468
2023-04-02T10:52:29.000Z,9943
2023-04-02T10:53:45.000Z,3953
2023-04-02T10:55:01.000Z,11056
2023-04-02T10:56:16.000Z,9811
2023-04-02T10:57:33.000Z,9423
2023-04-02T10:58:49.000Z,9537
2023-04-02T11:01:21.000Z,8393
2023-04-02T11:02:38.000Z,7646
2023-04-02T11:03:54.000Z,7951
2023-04-02T11:05:10.792Z,7793
2023-04-02T11:06:26.000Z,7821
2023-04-02T11:07:43.000Z,7575
2023-04-02T11:08:59.000Z,7300
2023-04-02T11:10:15.000Z,6940
2023-04-02T11:11:31.718Z,6125
2023-04-02T11:12:46.000Z,9544
2023-04-02T11:14:03.457Z,5466
2023-04-02T11:15:19.000Z,9532
2023-04-02T11:16:35.929Z,8436
2023-04-02T11:17:51.000Z,6593
2023-04-02T11:19:08.000Z,8524
2023-04-02T11:20:24.000Z,8668
2023-04-02T11:21:40.000Z,8703
2023-04-02T11:22:56.000Z,6544
2023-04-02T11:24:13.000Z,8012
2023-04-02T11:25:29.000Z,5551
2023-04-02T11:26:45.000Z,7669
2023-04-02T11:28:01.000Z,5855
2023-04-02T11:29:17.000Z,7895
2023-04-02T11:30:33.000Z,9954
2023-04-02T11:31:49.000Z,7635
2023-04-02T11:33:05.000Z,7547
2023-04-02T11:34:21.000Z,5581
2023-04-02T11:35:38.000Z,6975
2023-04-02T11:36:54.000Z,9513
2023-04-02T11:38:10.000Z,9070
2023-04-02T11:39:26.000Z,8777
2023-04-02T11:40:43.365Z,11912
2023-04-02T11:41:59.000Z,7263
2023-04-02T11:43:15.000Z,6876
2023-04-02T11:44:31.000Z,9227
2023-04-02T11:45:47.000Z,8773
2023-04-02T11:47:03.000Z,8948
2023-04-02T11:48:19.000Z,10494
2023-04-02T11:49:35.000Z,9990
2023-04-02T11:50:51.000Z,7365
2023-04-02T11:52:08.000Z,9854
2023-04-02T11:53:24.000Z,9070
2023-04-02T11:54:40.000Z,10404
2023-04-02T11:55:56.000Z,8920
2023-04-02T11:57:13.000Z,8971
2023-04-02T11:58:29.000Z,10318
2023-04-02T11:59:45.000Z,9519
2023-04-02T12:01:01.000Z,10417
2023-04-02T12:02:17.000Z,11325
2023-04-02T12:03:33.000Z,7399
2023-04-02T12:04:49.831Z,10622
2023-04-02T12:06:05.000Z,8144
2023-04-02T12:07:22.000Z,6249
2023-04-02T12:08:38.000Z,8713
2023-04-02T12:09:54.000Z,8868
2023-04-02T12:11:10.000Z,11005
2023-04-02T12:12:26.000Z,5508
2023-04-02T12:13:43.472Z,10314
2023-04-02T12:14:59.000Z,5644
2023-04-02T12:16:15.000Z,8001
2023-04-02T12:17:32.143Z,7163
2023-04-02T12:18:47.414Z,6754
2023-04-02T12:20:03.000Z,6581
2023-04-02T12:21:19.000Z,8180
2023-04-02T12:22:35.000Z,8762
2023-04-02T12:23:52.000Z,9013
2023-04-02T12:25:08.000Z,9285
2023-04-02T12:26:24.000Z,8302
2023-04-02T12:27:40.000Z,11685
2023-04-02T12:28:57.000Z,7651
2023-04-02T12:30:13.501Z,5377
2023-04-02T12:31:29.000Z,11338
2023-04-02T12:32:45.000Z,4578
2023-04-02T12:34:02.208Z,10292
2023-04-02T12:35:17.000Z,7941
2023-04-02T12:36:33.000Z,8626
2023-04-02T12:37:49.000Z,8732
2023-04-02T12:39:05.000Z,8313
2023-04-02T12:40:22.000Z,6852
2023-04-02T12:41:38.000Z,10188
2023-04-02T12:42:54.000Z,6388
2023-04-02T12:44:10.000Z,7446
2023-04-02T12:45:27.000Z,7033
2023-04-02T12:46:43.000Z,7107
2023-04-02T12:47:59.000Z,7273
2023-04-02T12:49:15.000Z,6497
2023-04-02T12:50:32.000Z,6486
2023-04-02T12:51:47.000Z,6075
2023-04-02T12:53:02.000Z,5971
2023-04-02T12:54:17.000Z,5989
2023-04-02T12:55:33.271Z,5581
2023-04-02T12:56:48.000Z,5567
2023-04-02T12:58:04.000Z,5088
2023-04-02T12:59:20.000Z,4598
2023-04-02T13:00:36.000Z,6503
2023-04-02T13:01:53.000Z,7577
2023-04-02T13:03:09.000Z,7249
2023-04-02T13:04:25.000Z,7198
2023-04-02T13:05:41.000Z,7376
2023-04-02T13:06:58.000Z,7998
2023-04-02T13:08:14.634Z,7062
2023-04-02T13:09:30.000Z,7154
2023-04-02T13:10:46.000Z,5930
2023-04-02T13:12:03.000Z,5506
2023-04-02T13:13:18.000Z,5134
2023-04-02T13:14:34.000Z,5129
2023-04-02T13:15:50.000Z,6363
2023-04-02T13:17:07.000Z,3224
2023-04-02T13:18:23.000Z,6603
2023-04-02T13:19:39.000Z,4182
2023-04-02T13:20:55.979Z,6191
2023-04-02T13:22:12.196Z,1731
2023-04-02T13:23:28.000Z,8102
2023-04-02T13:24:44.000Z,5922
2023-04-02T13:26:00.000Z,9731
2023-04-02T13:27:17.144Z,6490
2023-04-02T13:28:33.000Z,6192
2023-04-02T13:29:48.623Z,6729
2023-04-02T13:31:04.000Z,5278
2023-04-02T13:32:20.000Z,5878
2023-04-02T13:33:37.000Z,4972
2023-04-02T13:34:53.000Z,5126
2023-04-02T13:36:09.000Z,2351
2023-04-02T13:37:26.032Z,7961
2023-04-02T13:38:42.000Z,8198
2023-04-02T13:39:58.475Z,4425
2023-04-02T13:41:14.000Z,7268
2023-04-02T13:42:30.000Z,6401
2023-04-02T13:43:46.000Z,6328
2023-04-02T13:45:03.424Z,5400
2023-04-02T13:46:18.666Z,4945
2023-04-02T13:47:34.000Z,2994
2023-04-02T13:48:50.000Z,8208
2023-04-02T13:50:07.000Z,5078
2023-04-02T13:51:23.000Z,5337
2023-04-02T13:52:39.846Z,3998
2023-04-02T13:53:55.000Z,6262
2023-04-02T13:55:12.000Z,6354
2023-04-02T13:56:28.000Z,6362
2023-04-02T13:57:44.000Z,5207
2023-04-02T13:59:00.000Z,5763
2023-04-02T14:00:16.000Z,5178
2023-04-02T14:01:33.000Z,4958
2023-04-02T14:02:48.723Z,5790
2023-04-02T14:04:04.000Z,6127
2023-04-02T14:05:21.174Z,5667
2023-04-02T14:06:37.000Z,5431
2023-04-02T14:07:53.000Z,7188
2023-04-02T14:09:09.000Z,3191
2023-04-02T14:10:25.000Z,5263
2023-04-02T14:11:42.347Z,4774
2023-04-02T14:12:58.000Z,4386
2023-04-02T14:14:14.000Z,5186
2023-04-02T14:15:30.000Z,1731
2023-04-02T14:16:47.000Z,5551
2023-04-02T14:18:03.000Z,4430
2023-04-02T14:19:18.000Z,5275
2023-04-02T14:20:34.000Z,5033
2023-04-02T14:21:50.000Z,4116
2023-04-02T14:23:07.000Z,3645
2023-04-02T14:24:23.694Z,2535
2023-04-02T14:25:39.907Z,3842
2023-04-02T14:26:55.000Z,4185
2023-04-02T14:28:12.000Z,3853
2023-04-02T14:29:28.000Z,3735
2023-04-02T14:30:44.000Z,3490
2023-04-02T14:32:00.000Z,3105
2023-04-02T14:33:17.325Z,2439
2023-04-02T14:34:33.000Z,1917
2023-04-02T14:35:48.000Z,2621
2023-04-02T14:37:04.000Z,2362
2023-04-02T14:38:21.000Z,1903
2023-04-02T14:39:37.000Z,2520
2023-04-02T14:40:53.000Z,2559
2023-04-02T14:42:09.000Z,2788
2023-04-02T14:43:25.000Z,2918
2023-04-02T14:44:42.000Z,3119
2023-04-02T14:45:58.000Z,2995
2023-04-02T14:47:14.000Z,3172
2023-04-02T14:48:30.000Z,3907
2023-04-02T14:49:47.000Z,3503
2023-04-02T14:51:03.000Z,3008
2023-04-02T14:52:18.000Z,2636
2023-04-02T14:53:34.000Z,2375
2023-04-02T14:54:50.000Z,2234
2023-04-02T14:56:06.000Z,2115
2023-04-02T14:57:22.000Z,2054
2023-04-02T14:58:38.000Z,2014
2023-04-02T14:59:55.000Z,2011
2023-04-02T15:01:11.000Z,2053
2023-04-02T15:02:27.750Z,2083
2023-04-02T15:03:43.000Z,2116
2023-04-02T15:04:59.000Z,2076
2023-04-02T15:06:16.000Z,2028
2023-04-02T15:07:32.000Z,1877
2023-04-02T15:08:48.984Z,1842
2023-04-02T15:10:04.000Z,1965
2023-04-02T15:11:20.000Z,2011
2023-04-02T15:12:36.000Z,2038
2023-04-02T15:13:52.000Z,2028
2023-04-02T15:15:09.103Z,1901
2023-04-02T15:16:25.000Z,1809
2023-04-02T15:17:41.000Z,1783
2023-04-02T15:18:57.000Z,1799
2023-04-02T15:20:13.000Z,1809
2023-04-02T15:21:30.271Z,1812
2023-04-02T15:22:46.000Z,1784
2023-04-02T15:24:02.000Z,1762
2023-04-02T15:25:18.000Z,1782
2023-04-02T15:26:34.000Z,1793
2023-04-02T15:27:51.000Z,1778
2023-04-02T15:29:06.000Z,1761
2023-04-02T15:30:22.000Z,1763
2023-04-02T15:31:38.000Z,1791
2023-04-02T15:32:55.000Z,1833
2023-04-02T15:34:11.000Z,1889
2023-04-02T15:35:27.000Z,1961
2023-04-02T15:36:43.000Z,2000
2023-04-02T15:38:00.000Z,1928
2023-04-02T15:39:16.552Z,1835
2023-04-02T15:40:32.000Z,1825
2023-04-02T15:41:48.000Z,1900
2023-04-02T15:43:05.000Z,1958
2023-04-02T15:44:21.000Z,1987
2023-04-02T15:45:36.000Z,1832
2023-04-02T15:46:52.000Z,1969
2023-04-02T15:48:08.000Z,1771
2023-04-02T15:49:25.000Z,1668
2023-04-02T15:50:41.000Z,1636
2023-04-02T15:51:57.000Z,1610
2023-04-02T15:53:14.122Z,1777
2023-04-02T15:54:30.000Z,1879
2023-04-02T15:55:46.000Z,1905
2023-04-02T15:57:02.828Z,1893
2023-04-02T15:58:18.000Z,1835
2023-04-02T15:59:35.306Z,1776
2023-04-02T16:00:51.000Z,1699
2023-04-02T16:02:06.000Z,1607
2023-04-02T16:03:22.000Z,1523
2023-04-02T16:04:38.000Z,1461
2023-04-02T16:05:55.000Z,1408
2023-04-02T16:07:11.000Z,1369
2023-04-02T16:08:27.000Z,1349
2023-04-02T16:09:43.000Z,1312
2023-04-02T16:11:00.000Z,1262
2023-04-02T16:12:16.000Z,1231
2023-04-02T16:13:32.000Z,1241
2023-04-02T16:14:49.419Z,1268
2023-04-02T16:16:05.000Z,1261
2023-04-02T16:17:21.000Z,1260
2023-04-02T16:18:36.000Z,1278
2023-04-02T16:19:52.000Z,1310
2023-04-02T16:21:09.000Z,1375
2023-04-02T16:22:25.000Z,1450
2023-04-02T16:23:41.000Z,1456
2023-04-02T16:24:57.000Z,1390
2023-04-02T16:26:14.212Z,1311
2023-04-02T16:27:30.000Z,1266
2023-04-02T16:28:46.000Z,1270
2023-04-02T16:30:02.000Z,1274
2023-04-02T16:31:18.000Z,1259
2023-04-02T16:32:35.000Z,1253
2023-04-02T16:33:51.000Z,1269
2023-04-02T16:35:06.888Z,1283
2023-04-02T16:36:22.000Z,1279
2023-04-02T16:37:39.331Z,1260
2023-04-02T16:38:55.000Z,1217
2023-04-02T16:40:11.821Z,1160
2023-04-02T16:41:27.000Z,1122
2023-04-02T16:42:44.300Z,1069
2023-04-02T16:44:00.514Z,1057
2023-04-02T16:45:16.000Z,1068
2023-04-02T16:46:32.000Z,1130
2023-04-02T16:47:48.000Z,1212
2023-04-02T16:49:05.000Z,1188
2023-04-02T16:50:21.000Z,1146
2023-04-02T16:51:36.000Z,1149
2023-04-02T16:52:52.000Z,1162
2023-04-02T16:54:09.000Z,1096
2023-04-02T16:55:25.000Z,1104
2023-04-02T16:56:41.000Z,1101
2023-04-02T16:57:57.000Z,1006
2023-04-02T16:59:14.000Z,959
2023-04-02T17:00:30.000Z,919
2023-04-02T17:01:46.000Z,867
2023-04-02T17:03:02.000Z,840
2023-04-02T17:04:19.000Z,834
2023-04-02T17:05:35.000Z,726
2023-04-02T17:06:51.000Z,776
2023-04-02T17:08:06.990Z,805
2023-04-02T17:09:22.000Z,713
2023-04-02T17:10:39.000Z,749
2023-04-02T17:11:55.000Z,707
2023-04-02T17:13:11.000Z,724
2023-04-02T17:14:27.000Z,731
2023-04-02T17:15:44.436Z,641
2023-04-02T17:17:00.000Z,598
2023-04-02T17:18:16.000Z,596
2023-04-02T17:19:33.056Z,563
2023-04-02T17:20:49.325Z,557
2023-04-02T17:22:05.547Z,542
2023-04-02T17:23:21.000Z,552
2023-04-02T17:24:36.000Z,541
2023-04-02T17:25:53.000Z,540
2023-04-02T17:27:09.000Z,526
2023-04-02T17:28:25.000Z,535
2023-04-02T17:29:41.000Z,512
2023-04-02T17:30:57.000Z,506
2023-04-02T17:32:14.000Z,487
2023-04-02T17:33:30.000Z,492
2023-04-02T17:34:46.000Z,459